createdAt,value
2018-11-02T00:00:32.879Z,8.27
2018-11-02T00:03:01.896Z,9.20
2018-11-02T00:05:30.426Z,10.17
2018-11-02T00:07:59.148Z,12.67
2018-11-02T00:10:28.810Z,9.20
2018-11-02T00:12:58.022Z,9.53
2018-11-02T00:15:26.872Z,10.77
2018-11-02T00:17:55.392Z,9.27
2018-11-02T00:20:23.996Z,10.73
2018-11-02T00:22:52.504Z,10.17
2018-11-02T00:25:20.968Z,11.00
2018-11-02T00:27:49.494Z,11.27
2018-11-02T00:30:18.112Z,9.80
2018-11-02T00:32:47.920Z,10.37
2018-11-02T00:35:17.354Z,9.43
2018-11-02T00:37:45.862Z,11.27
2018-11-02T00:40:14.344Z,9.80
2018-11-02T00:42:44.189Z,10.20
2018-11-02T00:45:13.024Z,10.90
2018-11-02T00:47:42.014Z,10.03
2018-11-02T00:50:13.669Z,10.67
2018-11-02T00:52:44.767Z,9.57
2018-11-02T00:55:13.309Z,11.97
2018-11-02T00:57:41.823Z,9.80
2018-11-02T01:00:12.539Z,11.53
2018-11-02T01:02:41.312Z,11.13
2018-11-02T01:05:10.295Z,13.57
2018-11-02T01:07:40.324Z,11.90
2018-11-02T01:10:09.391Z,12.07
2018-11-02T01:12:39.234Z,12.27
2018-11-02T01:15:09.153Z,12.73
2018-11-02T01:17:38.648Z,13.03
2018-11-02T01:20:09.397Z,12.73
2018-11-02T01:22:38.941Z,14.60
2018-11-02T01:25:09.322Z,15.07
2018-11-02T01:27:39.696Z,15.60
2018-11-02T01:30:10.558Z,16.60
2018-11-02T01:32:40.582Z,18.40
2018-11-02T01:35:10.537Z,18.07
2018-11-02T01:37:40.113Z,16.73
2018-11-02T01:40:09.755Z,18.90
2018-11-02T01:42:39.543Z,18.73
2018-11-02T01:45:08.105Z,21.13
2018-11-02T01:47:36.657Z,19.83
2018-11-02T01:50:07.250Z,20.03
2018-11-02T01:52:36.791Z,19.77
2018-11-02T01:55:08.901Z,19.93
2018-11-02T01:57:37.992Z,20.00
2018-11-02T02:00:12.571Z,20.40
2018-11-02T02:02:41.167Z,19.30
2018-11-02T02:05:11.153Z,21.63
2018-11-02T02:07:39.723Z,20.37
2018-11-02T02:10:08.238Z,21.07
2018-11-02T02:12:39.278Z,19.50
2018-11-02T02:15:10.538Z,18.37
2018-11-02T02:17:40.235Z,19.00
2018-11-02T02:20:09.095Z,18.30
2018-11-02T02:22:38.482Z,18.63
2018-11-02T02:25:13.814Z,19.30
2018-11-02T02:27:42.314Z,19.50
2018-11-02T02:30:13.683Z,19.23
2018-11-02T02:32:42.189Z,18.77
2018-11-02T02:35:11.350Z,18.57
2018-11-02T02:37:40.776Z,21.77
2018-11-02T02:40:11.309Z,19.30
2018-11-02T02:42:41.503Z,17.00
2018-11-02T02:45:11.247Z,18.60
2018-11-02T02:47:41.580Z,21.60
2018-11-02T02:50:12.720Z,16.80
2018-11-02T02:52:41.693Z,18.60
2018-11-02T02:55:10.217Z,21.23
2018-11-02T02:57:39.185Z,15.50
2018-11-02T03:00:11.254Z,16.70
2018-11-02T03:02:39.838Z,16.43
2018-11-02T03:05:08.614Z,17.37
2018-11-02T03:07:38.539Z,18.50
2018-11-02T03:10:08.231Z,15.83
2018-11-02T03:12:36.938Z,17.37
2018-11-02T03:15:06.126Z,17.00
2018-11-02T03:17:35.344Z,18.23
2018-11-02T03:20:05.593Z,13.67
2018-11-02T03:22:34.143Z,15.03
2018-11-02T03:25:04.200Z,14.30
2018-11-02T03:27:32.677Z,14.97
2018-11-02T03:30:05.915Z,14.60
2018-11-02T03:32:36.017Z,14.70
2018-11-02T03:35:04.636Z,14.63
2018-11-02T03:37:33.353Z,19.50
2018-11-02T03:40:01.927Z,18.87
2018-11-02T03:42:31.024Z,23.20
2018-11-02T03:45:01.213Z,20.00
2018-11-02T03:47:29.757Z,18.90
2018-11-02T03:49:58.389Z,15.37
2018-11-02T03:52:26.877Z,17.50
2018-11-02T03:54:55.375Z,16.33
2018-11-02T03:57:23.889Z,18.03
2018-11-02T03:59:52.529Z,21.93
2018-11-02T04:02:21.081Z,17.50
2018-11-02T04:04:49.642Z,18.17
2018-11-02T04:07:19.339Z,16.73
2018-11-02T04:09:47.819Z,20.83
2018-11-02T04:12:16.322Z,21.93
2018-11-02T04:14:44.932Z,23.77
2018-11-02T04:17:13.430Z,20.50
2018-11-02T04:19:42.746Z,15.80
2018-11-02T04:22:12.054Z,16.10
2018-11-02T04:24:40.534Z,22.90
2018-11-02T04:27:09.051Z,17.93
2018-11-02T04:29:37.569Z,19.20
2018-11-02T04:32:06.268Z,19.17
2018-11-02T04:34:34.822Z,22.37
2018-11-02T04:37:03.371Z,18.40
2018-11-02T04:39:31.899Z,19.93
2018-11-02T04:42:00.386Z,21.93
2018-11-02T04:44:29.372Z,19.40
2018-11-02T04:46:59.125Z,22.27
2018-11-02T04:49:27.607Z,22.07
2018-11-02T04:51:56.834Z,23.83
2018-11-02T04:54:25.327Z,22.30
2018-11-02T04:56:53.805Z,18.60
2018-11-02T04:59:22.949Z,21.10
2018-11-02T05:01:51.424Z,18.43
2018-11-02T05:04:19.907Z,23.00
2018-11-02T05:06:48.509Z,19.50
2018-11-02T05:09:17.031Z,20.50
2018-11-02T05:11:45.647Z,21.17
2018-11-02T05:14:14.146Z,21.17
2018-11-02T05:16:42.637Z,23.17
2018-11-02T05:19:11.216Z,17.67
2018-11-02T05:21:39.791Z,19.77
2018-11-02T05:24:08.294Z,22.77
2018-11-02T05:26:36.831Z,20.47
2018-11-02T05:29:05.909Z,19.23
2018-11-02T05:31:34.391Z,18.97
2018-11-02T05:34:02.962Z,19.00
2018-11-02T05:36:31.558Z,22.07
2018-11-02T05:39:01.250Z,20.50
2018-11-02T05:41:29.828Z,20.40
2018-11-02T05:43:58.370Z,20.60
2018-11-02T05:46:26.945Z,20.50
2018-11-02T05:48:55.455Z,23.73
2018-11-02T05:51:24.450Z,18.53
2018-11-02T05:53:52.968Z,19.60
2018-11-02T05:56:21.467Z,20.00
2018-11-02T05:58:49.984Z,21.90
2018-11-02T06:01:18.529Z,22.40
2018-11-02T06:03:47.333Z,21.27
2018-11-02T06:06:15.800Z,19.83
2018-11-02T06:08:44.497Z,17.77
2018-11-02T06:11:13.982Z,21.07
2018-11-02T06:13:42.486Z,18.27
2018-11-02T06:16:11.013Z,19.23
2018-11-02T06:18:39.476Z,19.07
2018-11-02T06:21:07.967Z,20.60
2018-11-02T06:23:36.504Z,21.17
2018-11-02T06:26:06.231Z,17.47
2018-11-02T06:28:34.784Z,18.33
2018-11-02T06:31:03.271Z,21.07
2018-11-02T06:33:31.738Z,21.50
2018-11-02T06:36:00.229Z,19.93
2018-11-02T06:38:30.656Z,17.10
2018-11-02T06:40:59.204Z,18.50
2018-11-02T06:43:28.849Z,20.80
2018-11-02T06:45:57.376Z,18.83
2018-11-02T06:48:25.948Z,15.87
2018-11-02T06:50:54.545Z,22.20
2018-11-02T06:53:22.967Z,17.53
2018-11-02T06:55:51.677Z,19.03
2018-11-02T06:58:21.190Z,18.97
2018-11-02T07:00:50.996Z,18.33
2018-11-02T07:03:19.819Z,17.80
2018-11-02T07:05:50.055Z,16.00
2018-11-02T07:08:18.698Z,19.00
2018-11-02T07:10:49.095Z,17.13
2018-11-02T07:13:17.989Z,17.00
2018-11-02T07:15:46.923Z,17.23
2018-11-02T07:18:15.559Z,18.03
2018-11-02T07:20:45.953Z,17.57
2018-11-02T07:23:15.121Z,19.93
2018-11-02T07:25:45.070Z,18.13
2018-11-02T07:28:14.697Z,15.00
2018-11-02T07:30:43.680Z,17.00
2018-11-02T07:33:12.719Z,15.77
2018-11-02T07:35:41.768Z,15.97
2018-11-02T07:38:10.369Z,17.27
2018-11-02T07:40:38.976Z,17.53
2018-11-02T07:43:09.879Z,15.87
2018-11-02T07:45:38.560Z,17.27
2018-11-02T07:48:07.280Z,17.50
2018-11-02T07:50:36.817Z,22.37
2018-11-02T07:53:06.034Z,15.07
2018-11-02T07:55:35.053Z,15.43
2018-11-02T07:58:04.152Z,17.60
2018-11-02T08:00:33.816Z,17.57
2018-11-02T08:03:02.983Z,15.90
2018-11-02T08:05:32.167Z,14.03
2018-11-02T08:08:01.434Z,17.17
2018-11-02T08:10:31.355Z,15.17
2018-11-02T08:13:00.137Z,14.33
2018-11-02T08:15:31.602Z,15.57
2018-11-02T08:18:00.595Z,13.53
2018-11-02T08:20:30.722Z,14.83
2018-11-02T08:23:25.668Z,14.50
2018-11-02T08:25:54.837Z,13.83
2018-11-02T08:28:24.280Z,16.53
2018-11-02T08:30:53.317Z,14.93
2018-11-02T08:33:23.533Z,16.03
2018-11-02T08:35:52.329Z,11.90
2018-11-02T08:38:22.834Z,10.83
2018-11-02T08:40:52.482Z,12.27
2018-11-02T08:43:23.440Z,13.67
2018-11-02T08:45:52.603Z,11.00
2018-11-02T08:48:22.500Z,10.87
2018-11-02T08:50:51.172Z,10.80
2018-11-02T08:53:19.993Z,17.43
2018-11-02T08:55:50.268Z,14.23
2018-11-02T08:58:19.469Z,11.00
2018-11-02T09:00:48.007Z,11.17
2018-11-02T09:03:17.910Z,10.07
2018-11-02T09:05:46.691Z,9.83
2018-11-02T09:08:15.432Z,12.13
2018-11-02T09:10:44.209Z,8.87
2018-11-02T09:13:12.750Z,7.80
2018-11-02T09:15:41.229Z,8.57
2018-11-02T09:18:10.983Z,9.57
2018-11-02T09:20:40.875Z,10.00
2018-11-02T09:23:10.385Z,9.03
2018-11-02T09:25:38.952Z,11.87
2018-11-02T09:28:07.733Z,10.20
2018-11-02T09:30:37.387Z,8.33
2018-11-02T09:33:06.248Z,8.17
2018-11-02T09:35:34.767Z,8.60
2018-11-02T09:38:03.259Z,9.53
2018-11-02T09:40:32.015Z,7.90
2018-11-02T09:43:00.463Z,9.77
2018-11-02T09:45:29.079Z,7.10
2018-11-02T09:48:01.796Z,7.83
2018-11-02T09:50:30.343Z,9.90
2018-11-02T09:52:58.887Z,6.73
2018-11-02T09:55:27.411Z,6.03
2018-11-02T09:57:55.949Z,8.70
2018-11-02T10:00:24.454Z,6.30
2018-11-02T10:02:53.460Z,7.37
2018-11-02T10:05:22.037Z,5.83
2018-11-02T10:07:50.598Z,5.63
2018-11-02T10:10:20.141Z,5.93
2018-11-02T10:12:48.700Z,8.07
2018-11-02T10:15:17.185Z,7.07
2018-11-02T10:17:46.103Z,5.47
2018-11-02T10:20:14.685Z,7.13
2018-11-02T10:22:43.212Z,5.33
2018-11-02T10:25:12.185Z,6.70
2018-11-02T10:27:42.587Z,6.70
2018-11-02T10:30:13.174Z,5.33
2018-11-02T10:32:43.209Z,5.10
2018-11-02T10:35:12.323Z,5.40
2018-11-02T10:37:44.767Z,4.63
2018-11-02T10:40:18.000Z,4.87
2018-11-02T10:42:54.309Z,4.53
2018-11-02T10:45:25.565Z,5.70
2018-11-02T10:47:54.191Z,5.30
2018-11-02T10:50:22.773Z,5.57
2018-11-02T10:52:51.297Z,4.50
2018-11-02T10:55:19.817Z,7.57
2018-11-02T10:57:48.551Z,6.63
2018-11-02T11:01:23.856Z,3.50
2018-11-02T11:03:53.174Z,6.97
2018-11-02T11:06:23.724Z,7.43
2018-11-02T11:08:52.255Z,6.73
2018-11-02T11:11:20.827Z,3.53
2018-11-02T11:13:49.593Z,4.23
2018-11-02T11:16:17.923Z,4.63
2018-11-02T11:18:46.438Z,6.63
2018-11-02T11:21:15.111Z,3.80
2018-11-02T11:23:44.870Z,4.47
2018-11-02T11:26:13.498Z,3.33
2018-11-02T11:28:42.028Z,4.30
2018-11-02T11:31:10.575Z,3.93
2018-11-02T11:33:39.098Z,6.90
2018-11-02T11:36:08.847Z,5.93
2018-11-02T11:38:37.928Z,9.00
2018-11-02T11:41:06.439Z,7.53
2018-11-02T11:43:35.008Z,7.20
2018-11-02T11:46:03.554Z,6.60
2018-11-02T11:48:32.109Z,3.03
2018-11-02T11:51:00.591Z,9.37
2018-11-02T11:53:29.129Z,11.53
2018-11-02T11:55:57.754Z,6.77
2018-11-02T11:58:26.318Z,7.33
2018-11-02T12:00:54.849Z,8.63
2018-11-02T12:03:24.110Z,5.20
2018-11-02T12:05:52.658Z,6.13
2018-11-02T12:08:21.891Z,12.70
2018-11-02T12:10:50.445Z,11.03
2018-11-02T12:13:19.018Z,4.03
2018-11-02T12:15:49.465Z,4.30
2018-11-02T12:18:17.944Z,3.77
2018-11-02T12:20:46.494Z,10.47
2018-11-02T12:23:16.490Z,6.23
2018-11-02T12:25:45.108Z,7.13
2018-11-02T12:28:13.747Z,4.80
2018-11-02T12:30:43.174Z,3.03
2018-11-02T12:33:11.778Z,4.23
2018-11-02T12:35:40.416Z,10.73
2018-11-02T12:38:09.000Z,3.40
2018-11-02T12:40:37.575Z,4.00
2018-11-02T12:43:06.779Z,4.67
2018-11-02T12:45:35.240Z,5.83
2018-11-02T12:48:03.920Z,4.50
2018-11-02T12:50:32.481Z,3.27
2018-11-02T12:53:00.954Z,4.50
2018-11-02T12:55:31.524Z,5.03
2018-11-02T12:58:00.035Z,4.57
2018-11-02T13:00:31.739Z,6.93
2018-11-02T13:03:00.272Z,3.80
2018-11-02T13:05:28.764Z,5.00
2018-11-02T13:07:57.344Z,4.13
2018-11-02T13:10:25.922Z,4.77
2018-11-02T13:12:54.815Z,4.73
2018-11-02T13:15:24.306Z,4.40
2018-11-02T13:17:53.107Z,4.00
2018-11-02T13:20:21.719Z,3.77
2018-11-02T13:22:51.174Z,2.37
2018-11-02T13:25:21.022Z,2.17
2018-11-02T13:27:50.312Z,4.13
2018-11-02T13:30:19.070Z,6.47
2018-11-02T13:32:47.523Z,3.77
2018-11-02T13:35:17.248Z,3.67
2018-11-02T13:37:46.085Z,6.97
2018-11-02T13:40:16.135Z,2.90
2018-11-02T13:42:44.960Z,2.97
2018-11-02T13:45:14.693Z,2.37
2018-11-02T13:47:43.825Z,1.90
2018-11-02T13:50:12.842Z,3.90
2018-11-02T13:52:41.903Z,3.53
2018-11-02T13:55:11.358Z,2.07
2018-11-02T13:57:40.082Z,2.50
2018-11-02T14:00:10.945Z,2.60
2018-11-02T14:02:39.445Z,2.00
2018-11-02T14:05:09.566Z,1.93
2018-11-02T14:07:38.441Z,3.57
2018-11-02T14:10:07.748Z,2.43
2018-11-02T14:12:36.263Z,2.83
2018-11-02T14:15:06.227Z,3.53
2018-11-02T14:17:34.749Z,4.10
2018-11-02T14:20:03.595Z,2.30
2018-11-02T14:22:32.326Z,2.90
2018-11-02T14:25:00.835Z,4.60
2018-11-02T14:27:29.341Z,2.33
2018-11-02T14:29:58.005Z,2.90
2018-11-02T14:32:26.607Z,3.53
2018-11-02T14:34:55.132Z,2.87
2018-11-02T14:37:24.719Z,3.40
2018-11-02T14:39:53.493Z,4.97
2018-11-02T14:42:21.990Z,1.50
2018-11-02T14:44:50.499Z,1.53
2018-11-02T14:47:19.556Z,2.17
2018-11-02T14:50:02.109Z,3.33
2018-11-02T14:52:30.587Z,2.57
2018-11-02T14:55:00.064Z,3.53
2018-11-02T14:57:29.583Z,2.97
2018-11-02T14:59:58.090Z,5.97
2018-11-02T15:02:26.594Z,4.53
2018-11-02T15:04:55.101Z,3.37
2018-11-02T15:07:23.592Z,4.57
2018-11-02T15:09:52.282Z,3.43
2018-11-02T15:12:20.951Z,4.07
2018-11-02T15:14:49.451Z,5.07
2018-11-02T15:17:17.982Z,4.70
2018-11-02T15:19:46.535Z,4.47
2018-11-02T15:22:15.047Z,2.17
2018-11-02T15:24:43.589Z,3.93
2018-11-02T15:27:12.940Z,5.27
2018-11-02T15:29:41.462Z,3.47
2018-11-02T15:32:09.970Z,4.63
2018-11-02T15:34:38.595Z,2.70
2018-11-02T15:37:07.726Z,3.60
2018-11-02T15:39:36.217Z,5.17
2018-11-02T15:42:05.475Z,3.70
2018-11-02T15:44:34.051Z,3.57
2018-11-02T15:47:03.470Z,3.00
2018-11-02T15:49:32.024Z,2.63
2018-11-02T15:52:01.175Z,4.23
2018-11-02T15:54:30.355Z,3.70
2018-11-02T15:56:58.959Z,4.97
2018-11-02T15:59:28.500Z,3.83
2018-11-02T16:01:56.997Z,3.67
2018-11-02T16:04:26.164Z,4.00
2018-11-02T16:06:54.713Z,5.47
2018-11-02T16:09:23.284Z,3.37
2018-11-02T16:11:51.792Z,5.87
2018-11-02T16:14:20.912Z,4.17
2018-11-02T16:16:50.270Z,3.40
2018-11-02T16:19:18.776Z,6.00
2018-11-02T16:21:47.352Z,5.50
2018-11-02T16:24:16.752Z,4.50
2018-11-02T16:26:45.482Z,7.90
2018-11-02T16:29:14.886Z,7.17
2018-11-02T16:31:43.422Z,7.37
2018-11-02T16:34:12.023Z,6.13
2018-11-02T16:36:40.460Z,8.60
2018-11-02T16:39:11.547Z,6.80
2018-11-02T16:41:41.460Z,5.20
2018-11-02T16:44:10.527Z,6.37
2018-11-02T16:46:39.964Z,6.93
2018-11-02T16:49:08.553Z,7.93
2018-11-02T16:51:37.216Z,7.67
2018-11-02T16:54:05.978Z,7.27
2018-11-02T16:56:34.695Z,8.03
2018-11-02T16:59:03.200Z,6.30
2018-11-02T17:01:31.738Z,9.83
2018-11-02T17:04:00.282Z,8.30
2018-11-02T17:06:29.472Z,7.90
2018-11-02T17:08:58.062Z,8.37
2018-11-02T17:11:26.677Z,14.40
2018-11-02T17:13:55.117Z,5.70
2018-11-02T17:16:23.642Z,5.53
2018-11-02T17:18:52.201Z,5.80
2018-11-02T17:21:20.723Z,5.13
2018-11-02T17:23:49.286Z,7.00
2018-11-02T17:26:17.964Z,9.30
2018-11-02T17:28:47.526Z,7.57
2018-11-02T17:31:16.058Z,7.10
2018-11-02T17:33:44.574Z,4.53
2018-11-02T17:36:13.068Z,5.80
2018-11-02T17:38:41.602Z,6.00
2018-11-02T17:41:11.788Z,4.13
2018-11-02T17:43:40.673Z,4.97
2018-11-02T17:46:09.580Z,5.13
2018-11-02T17:48:38.368Z,5.53
2018-11-02T17:51:06.996Z,3.90
2018-11-02T17:53:35.520Z,4.00
2018-11-02T17:56:04.062Z,7.10
2018-11-02T17:58:32.692Z,6.40
2018-11-02T18:01:01.237Z,7.77
2018-11-02T18:03:29.750Z,7.53
2018-11-02T18:05:59.141Z,5.03
2018-11-02T18:08:28.960Z,4.20
2018-11-02T18:10:57.420Z,5.47
2018-11-02T18:13:28.238Z,6.07
2018-11-02T18:15:56.949Z,4.60
2018-11-02T18:18:26.677Z,5.67
2018-11-02T18:20:55.689Z,4.93
2018-11-02T18:23:24.275Z,4.63
2018-11-02T18:25:52.867Z,4.03
2018-11-02T18:28:21.377Z,3.53
2018-11-02T18:30:49.875Z,3.60
2018-11-02T18:33:18.371Z,4.73
2018-11-02T18:35:46.885Z,4.70
2018-11-02T18:38:15.379Z,5.13
2018-11-02T18:40:43.901Z,6.53
2018-11-02T18:43:12.424Z,5.20
2018-11-02T18:45:41.007Z,5.30
2018-11-02T18:48:09.611Z,4.20
2018-11-02T18:50:38.080Z,4.77
2018-11-02T18:53:06.775Z,5.13
2018-11-02T18:55:35.296Z,7.67
2018-11-02T18:58:03.925Z,6.43
2018-11-02T19:00:32.436Z,4.73
2018-11-02T19:03:00.994Z,5.57
2018-11-02T19:05:29.553Z,4.83
2018-11-02T19:07:58.117Z,6.10
2018-11-02T19:10:26.636Z,3.70
2018-11-02T19:12:55.242Z,3.90
2018-11-02T19:15:23.815Z,4.40
2018-11-02T19:17:52.361Z,7.87
2018-11-02T19:20:21.005Z,6.20
2018-11-02T19:22:49.697Z,5.93
2018-11-02T19:25:18.426Z,6.13
2018-11-02T19:27:47.205Z,6.27
2018-11-02T19:30:16.169Z,7.27
2018-11-02T19:32:44.749Z,6.47
2018-11-02T19:35:14.143Z,5.60
2018-11-02T19:37:42.958Z,5.80
2018-11-02T19:40:12.838Z,5.00
2018-11-02T19:42:41.392Z,5.63
2018-11-02T19:45:10.428Z,5.47
2018-11-02T19:47:44.210Z,7.97
2018-11-02T19:50:14.151Z,7.93
2018-11-02T19:52:42.710Z,4.73
2018-11-02T19:55:12.230Z,4.70
2018-11-02T19:57:41.656Z,5.00
2018-11-02T20:00:12.347Z,6.27
2018-11-02T20:02:41.471Z,8.03
2018-11-02T20:05:12.509Z,6.37
2018-11-02T20:07:42.402Z,6.30
2018-11-02T20:10:12.037Z,6.43
2018-11-02T20:12:40.619Z,6.67
2018-11-02T20:15:10.131Z,6.33
2018-11-02T20:17:39.057Z,9.00
2018-11-02T20:20:08.823Z,8.87
2018-11-02T20:22:37.943Z,8.23
2018-11-02T20:25:07.549Z,10.10
2018-11-02T20:27:36.080Z,6.73
2018-11-02T20:30:05.871Z,8.73
2018-11-02T20:32:34.396Z,8.33
2018-11-02T20:35:02.960Z,8.70
2018-11-02T20:37:31.511Z,11.80
2018-11-02T20:40:00.065Z,15.63
2018-11-02T20:42:28.639Z,7.30
2018-11-02T20:44:57.203Z,8.93
2018-11-02T20:47:26.368Z,8.60
2018-11-02T20:49:55.878Z,10.57
2018-11-02T20:52:24.434Z,9.67
2018-11-02T20:54:52.970Z,9.33
2018-11-02T20:57:21.585Z,7.10
2018-11-02T20:59:50.131Z,7.80
2018-11-02T21:02:18.641Z,11.23
2018-11-02T21:04:47.196Z,8.63
2018-11-02T21:07:15.756Z,8.87
2018-11-02T21:09:44.347Z,7.77
2018-11-02T21:12:12.833Z,8.07
2018-11-02T21:14:41.624Z,8.10
2018-11-02T21:17:10.054Z,7.00
2018-11-02T21:19:39.425Z,8.83
2018-11-02T21:22:10.292Z,8.67
2018-11-02T21:24:38.798Z,7.00
2018-11-02T21:27:07.679Z,7.77
2018-11-02T21:29:36.178Z,7.83
2018-11-02T21:32:05.405Z,5.83
2018-11-02T21:34:35.219Z,8.33
2018-11-02T21:37:03.740Z,5.97
2018-11-02T21:39:32.873Z,8.57
2018-11-02T21:42:09.987Z,7.30
2018-11-02T21:44:38.599Z,10.77
2018-11-02T21:47:07.503Z,9.13
2018-11-02T21:49:37.318Z,7.63
2018-11-02T21:52:06.217Z,6.63
2018-11-02T21:54:35.987Z,7.87
2018-11-02T21:57:06.324Z,6.33
2018-11-02T21:59:34.835Z,9.13
2018-11-02T22:02:07.631Z,9.10
2018-11-02T22:04:36.859Z,18.53
2018-11-02T22:07:07.303Z,20.70
2018-11-02T22:09:37.166Z,16.90
2018-11-02T22:12:08.107Z,10.07
2018-11-02T22:14:36.650Z,7.73
2018-11-02T22:17:07.212Z,8.27
2018-11-02T22:19:35.723Z,8.07
2018-11-02T22:22:04.272Z,7.90
2018-11-02T22:24:33.431Z,8.77
2018-11-02T22:27:01.952Z,8.23
2018-11-02T22:29:30.478Z,7.40
2018-11-02T22:32:00.216Z,8.07
2018-11-02T22:34:28.760Z,7.20
2018-11-02T22:36:57.274Z,7.77
2018-11-02T22:39:27.312Z,7.80
2018-11-02T22:41:57.078Z,8.87
2018-11-02T22:44:25.638Z,10.17
2018-11-02T22:46:55.368Z,7.77
2018-11-02T22:49:23.843Z,6.93
2018-11-02T22:51:52.320Z,8.30
2018-11-02T22:54:20.857Z,9.67
2018-11-02T22:56:49.393Z,8.53
2018-11-02T22:59:17.912Z,9.03
2018-11-02T23:01:46.435Z,10.47
2018-11-02T23:04:14.945Z,7.53
2018-11-02T23:06:45.495Z,9.30
2018-11-02T23:09:14.125Z,9.40
2018-11-02T23:11:44.088Z,7.20
2018-11-02T23:14:12.578Z,10.43
2018-11-02T23:16:41.085Z,9.00
2018-11-02T23:19:09.727Z,12.90
2018-11-02T23:21:38.177Z,6.90
2018-11-02T23:24:06.817Z,6.73
2018-11-02T23:26:36.759Z,9.83
2018-11-02T23:29:06.581Z,8.10
2018-11-02T23:31:35.359Z,9.83
2018-11-02T23:34:03.935Z,10.77
2018-11-02T23:36:32.472Z,10.13
2018-11-02T23:39:00.981Z,7.60
2018-11-02T23:41:29.602Z,9.77
2018-11-02T23:43:58.136Z,7.80
2018-11-02T23:46:26.639Z,7.63
2018-11-02T23:48:55.853Z,8.70
2018-11-02T23:51:24.431Z,9.57
2018-11-02T23:53:53.833Z,8.23
2018-11-02T23:56:22.917Z,7.60
2018-11-02T23:58:52.429Z,9.87
